sensor_id;sensor_type;location;lat;lon;timestamp;P1;durP1;ratioP1;P2;durP2;ratioP2
11711;SDS011;5912;51.034;6.984;2022-08-03T00:01:41;4.57;;;2.33;;
11711;SDS011;5912;51.034;6.984;2022-08-03T00:04:07;3.03;;;2.40;;
11711;SDS011;5912;51.034;6.984;2022-08-03T00:06:34;2.47;;;2.28;;
11711;SDS011;5912;51.034;6.984;2022-08-03T00:09:00;2.83;;;2.22;;
11711;SDS011;5912;51.034;6.984;2022-08-03T00:11:26;3.63;;;2.25;;
11711;SDS011;5912;51.034;6.984;2022-08-03T00:13:51;3.85;;;2.47;;
11711;SDS011;5912;51.034;6.984;2022-08-03T00:16:17;4.05;;;2.60;;
11711;SDS011;5912;51.034;6.984;2022-08-03T00:18:42;3.47;;;2.63;;
11711;SDS011;5912;51.034;6.984;2022-08-03T00:21:08;2.67;;;2.40;;
11711;SDS011;5912;51.034;6.984;2022-08-03T00:23:34;4.78;;;2.60;;
11711;SDS011;5912;51.034;6.984;2022-08-03T00:25:59;2.92;;;2.70;;
11711;SDS011;5912;51.034;6.984;2022-08-03T00:28:25;3.45;;;2.35;;
11711;SDS011;5912;51.034;6.984;2022-08-03T00:30:51;3.80;;;2.63;;
11711;SDS011;5912;51.034;6.984;2022-08-03T00:33:16;4.15;;;2.30;;
11711;SDS011;5912;51.034;6.984;2022-08-03T00:35:42;5.55;;;2.60;;
11711;SDS011;5912;51.034;6.984;2022-08-03T00:38:07;3.00;;;2.55;;
11711;SDS011;5912;51.034;6.984;2022-08-03T00:40:32;2.40;;;2.20;;
11711;SDS011;5912;51.034;6.984;2022-08-03T00:42:59;3.28;;;2.50;;
11711;SDS011;5912;51.034;6.984;2022-08-03T00:45:27;2.50;;;2.20;;
11711;SDS011;5912;51.034;6.984;2022-08-03T00:47:57;2.80;;;2.53;;
11711;SDS011;5912;51.034;6.984;2022-08-03T00:50:24;3.80;;;2.38;;
11711;SDS011;5912;51.034;6.984;2022-08-03T00:52:54;2.95;;;2.40;;
11711;SDS011;5912;51.034;6.984;2022-08-03T00:55:21;2.92;;;2.40;;
11711;SDS011;5912;51.034;6.984;2022-08-03T00:57:46;3.30;;;2.13;;
11711;SDS011;5912;51.034;6.984;2022-08-03T01:00:14;2.83;;;2.40;;
11711;SDS011;5912;51.034;6.984;2022-08-03T01:02:42;2.30;;;2.10;;
11711;SDS011;5912;51.034;6.984;2022-08-03T01:05:08;4.35;;;2.58;;
11711;SDS011;5912;51.034;6.984;2022-08-03T01:13:16;2.75;;;2.40;;
11711;SDS011;5912;51.034;6.984;2022-08-03T01:18:59;3.33;;;2.45;;
11711;SDS011;5912;51.034;6.984;2022-08-03T01:21:45;2.63;;;2.10;;
11711;SDS011;5912;51.034;6.984;2022-08-03T01:27:17;2.42;;;2.22;;
11711;SDS011;5912;51.034;6.984;2022-08-03T01:32:21;3.55;;;2.40;;
11711;SDS011;5912;51.034;6.984;2022-08-03T01:35:02;3.22;;;2.70;;
11711;SDS011;5912;51.034;6.984;2022-08-03T01:37:31;2.35;;;2.03;;
11711;SDS011;5912;51.034;6.984;2022-08-03T01:40:02;3.92;;;2.30;;
11711;SDS011;5912;51.034;6.984;2022-08-03T01:42:30;3.40;;;2.63;;
11711;SDS011;5912;51.034;6.984;2022-08-03T01:44:57;3.35;;;2.50;;
11711;SDS011;5912;51.034;6.984;2022-08-03T01:47:24;2.88;;;2.65;;
11711;SDS011;5912;51.034;6.984;2022-08-03T01:49:52;3.95;;;2.33;;
11711;SDS011;5912;51.034;6.984;2022-08-03T01:52:18;3.30;;;2.50;;
11711;SDS011;5912;51.034;6.984;2022-08-03T01:54:46;4.32;;;2.65;;
11711;SDS011;5912;51.034;6.984;2022-08-03T01:57:14;3.28;;;2.65;;
11711;SDS011;5912;51.034;6.984;2022-08-03T01:59:41;2.58;;;2.22;;
11711;SDS011;5912;51.034;6.984;2022-08-03T02:02:11;3.85;;;2.50;;
11711;SDS011;5912;51.034;6.984;2022-08-03T02:04:38;3.22;;;2.50;;
11711;SDS011;5912;51.034;6.984;2022-08-03T02:07:06;3.30;;;2.75;;
11711;SDS011;5912;51.034;6.984;2022-08-03T02:09:32;3.20;;;2.85;;
11711;SDS011;5912;51.034;6.984;2022-08-03T02:12:00;3.67;;;2.95;;
11711;SDS011;5912;51.034;6.984;2022-08-03T02:14:26;5.35;;;3.17;;
11711;SDS011;5912;51.034;6.984;2022-08-03T02:16:53;3.08;;;2.70;;
11711;SDS011;5912;51.034;6.984;2022-08-03T02:19:19;3.60;;;2.83;;
11711;SDS011;5912;51.034;6.984;2022-08-03T02:21:46;4.55;;;2.88;;
11711;SDS011;5912;51.034;6.984;2022-08-03T02:24:13;3.25;;;2.70;;
11711;SDS011;5912;51.034;6.984;2022-08-03T02:26:38;3.95;;;2.72;;
11711;SDS011;5912;51.034;6.984;2022-08-03T02:29:06;3.15;;;2.83;;
11711;SDS011;5912;51.034;6.984;2022-08-03T02:31:37;3.63;;;2.63;;
11711;SDS011;5912;51.034;6.984;2022-08-03T02:34:05;5.90;;;3.10;;
11711;SDS011;5912;51.034;6.984;2022-08-03T02:36:36;2.85;;;2.40;;
11711;SDS011;5912;51.034;6.984;2022-08-03T02:39:03;2.67;;;2.47;;
11711;SDS011;5912;51.034;6.984;2022-08-03T02:41:32;3.97;;;2.60;;
11711;SDS011;5912;51.034;6.984;2022-08-03T02:44:01;3.38;;;2.70;;
11711;SDS011;5912;51.034;6.984;2022-08-03T02:46:32;2.90;;;2.60;;
11711;SDS011;5912;51.034;6.984;2022-08-03T02:49:02;2.97;;;2.67;;
11711;SDS011;5912;51.034;6.984;2022-08-03T02:51:31;2.75;;;2.50;;
11711;SDS011;5912;51.034;6.984;2022-08-03T02:54:02;5.30;;;2.80;;
11711;SDS011;5912;51.034;6.984;2022-08-03T02:56:28;3.88;;;2.78;;
11711;SDS011;5912;51.034;6.984;2022-08-03T02:58:55;2.70;;;2.50;;
11711;SDS011;5912;51.034;6.984;2022-08-03T03:01:21;3.45;;;2.90;;
11711;SDS011;5912;51.034;6.984;2022-08-03T03:03:50;3.25;;;2.47;;
11711;SDS011;5912;51.034;6.984;2022-08-03T03:06:17;2.97;;;2.53;;
11711;SDS011;5912;51.034;6.984;2022-08-03T03:08:43;3.70;;;2.67;;
11711;SDS011;5912;51.034;6.984;2022-08-03T03:11:10;3.90;;;2.30;;
11711;SDS011;5912;51.034;6.984;2022-08-03T03:13:37;4.80;;;2.78;;
11711;SDS011;5912;51.034;6.984;2022-08-03T03:16:05;3.58;;;2.50;;
11711;SDS011;5912;51.034;6.984;2022-08-03T03:18:32;3.83;;;2.60;;
11711;SDS011;5912;51.034;6.984;2022-08-03T03:21:00;3.38;;;2.75;;
11711;SDS011;5912;51.034;6.984;2022-08-03T03:23:26;3.83;;;2.90;;
11711;SDS011;5912;51.034;6.984;2022-08-03T03:25:53;3.00;;;2.33;;
11711;SDS011;5912;51.034;6.984;2022-08-03T03:28:20;3.28;;;2.38;;
11711;SDS011;5912;51.034;6.984;2022-08-03T03:30:47;2.88;;;2.50;;
11711;SDS011;5912;51.034;6.984;2022-08-03T03:33:13;2.75;;;2.40;;
11711;SDS011;5912;51.034;6.984;2022-08-03T03:35:39;2.35;;;2.15;;
11711;SDS011;5912;51.034;6.984;2022-08-03T03:38:06;2.85;;;2.53;;
11711;SDS011;5912;51.034;6.984;2022-08-03T03:40:33;3.03;;;2.55;;
11711;SDS011;5912;51.034;6.984;2022-08-03T03:42:59;2.95;;;2.65;;
11711;SDS011;5912;51.034;6.984;2022-08-03T03:45:25;4.10;;;3.00;;
11711;SDS011;5912;51.034;6.984;2022-08-03T03:47:51;3.88;;;2.88;;
11711;SDS011;5912;51.034;6.984;2022-08-03T03:50:17;2.80;;;2.55;;
11711;SDS011;5912;51.034;6.984;2022-08-03T03:52:43;3.90;;;2.70;;
11711;SDS011;5912;51.034;6.984;2022-08-03T03:55:08;2.83;;;2.58;;
11711;SDS011;5912;51.034;6.984;2022-08-03T03:57:34;3.85;;;3.22;;
11711;SDS011;5912;51.034;6.984;2022-08-03T03:59:59;4.97;;;2.72;;
11711;SDS011;5912;51.034;6.984;2022-08-03T04:02:24;3.50;;;2.65;;
11711;SDS011;5912;51.034;6.984;2022-08-03T04:04:50;3.10;;;2.63;;
11711;SDS011;5912;51.034;6.984;2022-08-03T04:07:37;3.08;;;2.47;;
11711;SDS011;5912;51.034;6.984;2022-08-03T04:10:38;3.55;;;2.65;;
11711;SDS011;5912;51.034;6.984;2022-08-03T04:13:26;2.88;;;2.65;;
11711;SDS011;5912;51.034;6.984;2022-08-03T04:15:57;3.35;;;2.42;;
11711;SDS011;5912;51.034;6.984;2022-08-03T04:18:23;3.30;;;2.83;;
11711;SDS011;5912;51.034;6.984;2022-08-03T04:20:51;4.63;;;2.88;;
11711;SDS011;5912;51.034;6.984;2022-08-03T04:23:20;3.28;;;2.65;;
11711;SDS011;5912;51.034;6.984;2022-08-03T04:25:48;5.07;;;2.25;;
11711;SDS011;5912;51.034;6.984;2022-08-03T04:28:16;3.17;;;2.60;;
11711;SDS011;5912;51.034;6.984;2022-08-03T04:30:44;3.00;;;2.60;;
11711;SDS011;5912;51.034;6.984;2022-08-03T04:33:11;4.60;;;2.88;;
11711;SDS011;5912;51.034;6.984;2022-08-03T04:35:38;4.22;;;2.78;;
11711;SDS011;5912;51.034;6.984;2022-08-03T04:38:05;4.72;;;2.60;;
11711;SDS011;5912;51.034;6.984;2022-08-03T04:40:35;2.40;;;2.20;;
11711;SDS011;5912;51.034;6.984;2022-08-03T04:43:03;2.70;;;2.50;;
11711;SDS011;5912;51.034;6.984;2022-08-03T04:45:30;2.55;;;2.33;;
11711;SDS011;5912;51.034;6.984;2022-08-03T04:47:56;7.07;;;2.50;;
11711;SDS011;5912;51.034;6.984;2022-08-03T04:50:22;3.42;;;2.63;;
11711;SDS011;5912;51.034;6.984;2022-08-03T04:52:47;2.70;;;2.25;;
11711;SDS011;5912;51.034;6.984;2022-08-03T04:57:55;2.88;;;2.67;;
11711;SDS011;5912;51.034;6.984;2022-08-03T05:00:20;2.63;;;2.33;;
11711;SDS011;5912;51.034;6.984;2022-08-03T05:02:46;3.00;;;2.70;;
11711;SDS011;5912;51.034;6.984;2022-08-03T05:05:11;4.45;;;2.70;;
11711;SDS011;5912;51.034;6.984;2022-08-03T05:07:37;3.65;;;2.60;;
11711;SDS011;5912;51.034;6.984;2022-08-03T05:10:03;2.75;;;2.53;;
11711;SDS011;5912;51.034;6.984;2022-08-03T05:12:30;2.85;;;2.38;;
11711;SDS011;5912;51.034;6.984;2022-08-03T05:14:55;3.58;;;2.50;;
11711;SDS011;5912;51.034;6.984;2022-08-03T05:17:20;3.00;;;2.70;;
11711;SDS011;5912;51.034;6.984;2022-08-03T05:19:45;2.72;;;2.17;;
11711;SDS011;5912;51.034;6.984;2022-08-03T05:22:11;2.85;;;2.53;;
11711;SDS011;5912;51.034;6.984;2022-08-03T05:24:36;3.58;;;2.60;;
11711;SDS011;5912;51.034;6.984;2022-08-03T05:27:01;2.70;;;2.50;;
11711;SDS011;5912;51.034;6.984;2022-08-03T05:29:26;3.00;;;2.67;;
11711;SDS011;5912;51.034;6.984;2022-08-03T05:31:52;3.40;;;2.58;;
11711;SDS011;5912;51.034;6.984;2022-08-03T05:34:17;4.43;;;2.58;;
11711;SDS011;5912;51.034;6.984;2022-08-03T05:36:42;3.55;;;2.75;;
11711;SDS011;5912;51.034;6.984;2022-08-03T05:39:08;2.50;;;2.30;;
11711;SDS011;5912;51.034;6.984;2022-08-03T05:41:33;3.58;;;2.25;;
11711;SDS011;5912;51.034;6.984;2022-08-03T05:43:58;3.78;;;2.65;;
11711;SDS011;5912;51.034;6.984;2022-08-03T05:46:23;3.20;;;2.53;;
11711;SDS011;5912;51.034;6.984;2022-08-03T05:48:49;3.70;;;2.72;;
11711;SDS011;5912;51.034;6.984;2022-08-03T05:51:15;2.70;;;2.35;;
11711;SDS011;5912;51.034;6.984;2022-08-03T05:53:40;2.45;;;2.25;;
11711;SDS011;5912;51.034;6.984;2022-08-03T05:56:06;2.95;;;2.65;;
11711;SDS011;5912;51.034;6.984;2022-08-03T05:58:31;3.35;;;2.30;;
11711;SDS011;5912;51.034;6.984;2022-08-03T06:00:57;3.42;;;2.30;;
11711;SDS011;5912;51.034;6.984;2022-08-03T06:03:22;4.10;;;2.30;;
11711;SDS011;5912;51.034;6.984;2022-08-03T06:05:47;5.15;;;2.63;;
11711;SDS011;5912;51.034;6.984;2022-08-03T06:08:13;3.03;;;2.50;;
11711;SDS011;5912;51.034;6.984;2022-08-03T06:10:38;2.95;;;2.65;;
11711;SDS011;5912;51.034;6.984;2022-08-03T06:13:03;3.67;;;3.08;;
11711;SDS011;5912;51.034;6.984;2022-08-03T06:15:29;4.05;;;2.97;;
11711;SDS011;5912;51.034;6.984;2022-08-03T06:18:12;3.70;;;2.80;;
11711;SDS011;5912;51.034;6.984;2022-08-03T06:20:37;4.88;;;2.83;;
11711;SDS011;5912;51.034;6.984;2022-08-03T06:23:03;3.58;;;3.00;;
11711;SDS011;5912;51.034;6.984;2022-08-03T06:25:28;4.07;;;3.17;;
11711;SDS011;5912;51.034;6.984;2022-08-03T06:27:54;4.82;;;2.78;;
11711;SDS011;5912;51.034;6.984;2022-08-03T06:30:20;3.20;;;2.90;;
11711;SDS011;5912;51.034;6.984;2022-08-03T06:32:45;3.50;;;2.85;;
11711;SDS011;5912;51.034;6.984;2022-08-03T06:35:10;3.10;;;2.80;;
11711;SDS011;5912;51.034;6.984;2022-08-03T06:37:45;3.40;;;2.80;;
11711;SDS011;5912;51.034;6.984;2022-08-03T06:40:15;2.83;;;2.60;;
11711;SDS011;5912;51.034;6.984;2022-08-03T06:42:43;5.20;;;2.60;;
11711;SDS011;5912;51.034;6.984;2022-08-03T06:45:09;4.00;;;3.10;;
11711;SDS011;5912;51.034;6.984;2022-08-03T06:47:38;3.15;;;2.72;;
11711;SDS011;5912;51.034;6.984;2022-08-03T06:50:05;3.00;;;2.70;;
11711;SDS011;5912;51.034;6.984;2022-08-03T06:52:31;3.00;;;2.40;;
11711;SDS011;5912;51.034;6.984;2022-08-03T06:54:56;2.53;;;2.33;;
11711;SDS011;5912;51.034;6.984;2022-08-03T06:57:22;2.63;;;2.42;;
11711;SDS011;5912;51.034;6.984;2022-08-03T06:59:47;4.63;;;2.38;;
11711;SDS011;5912;51.034;6.984;2022-08-03T07:02:13;4.95;;;2.40;;
11711;SDS011;5912;51.034;6.984;2022-08-03T07:04:38;3.33;;;2.03;;
11711;SDS011;5912;51.034;6.984;2022-08-03T07:07:03;5.40;;;2.05;;
11711;SDS011;5912;51.034;6.984;2022-08-03T07:09:29;4.18;;;2.63;;
11711;SDS011;5912;51.034;6.984;2022-08-03T07:11:54;3.70;;;2.38;;
11711;SDS011;5912;51.034;6.984;2022-08-03T07:14:21;6.28;;;2.50;;
11711;SDS011;5912;51.034;6.984;2022-08-03T07:16:46;2.75;;;1.90;;
11711;SDS011;5912;51.034;6.984;2022-08-03T07:19:12;3.28;;;2.15;;
11711;SDS011;5912;51.034;6.984;2022-08-03T07:21:37;3.35;;;2.10;;
11711;SDS011;5912;51.034;6.984;2022-08-03T07:24:02;2.42;;;2.13;;
11711;SDS011;5912;51.034;6.984;2022-08-03T07:26:28;1.95;;;1.73;;
11711;SDS011;5912;51.034;6.984;2022-08-03T07:28:53;2.50;;;1.67;;
11711;SDS011;5912;51.034;6.984;2022-08-03T07:31:19;2.10;;;1.80;;
11711;SDS011;5912;51.034;6.984;2022-08-03T07:33:44;3.15;;;2.10;;
11711;SDS011;5912;51.034;6.984;2022-08-03T07:36:10;3.80;;;1.95;;
11711;SDS011;5912;51.034;6.984;2022-08-03T07:38:35;4.03;;;2.17;;
11711;SDS011;5912;51.034;6.984;2022-08-03T07:41:01;2.60;;;2.00;;
11711;SDS011;5912;51.034;6.984;2022-08-03T07:43:27;2.63;;;1.92;;
11711;SDS011;5912;51.034;6.984;2022-08-03T07:45:52;2.38;;;1.80;;
11711;SDS011;5912;51.034;6.984;2022-08-03T07:48:17;3.25;;;1.98;;
11711;SDS011;5912;51.034;6.984;2022-08-03T07:50:43;1.60;;;1.50;;
11711;SDS011;5912;51.034;6.984;2022-08-03T07:53:08;2.97;;;1.80;;
11711;SDS011;5912;51.034;6.984;2022-08-03T07:55:33;2.05;;;1.85;;
11711;SDS011;5912;51.034;6.984;2022-08-03T07:58:00;1.60;;;1.50;;
11711;SDS011;5912;51.034;6.984;2022-08-03T08:00:26;1.50;;;1.38;;
11711;SDS011;5912;51.034;6.984;2022-08-03T08:02:51;2.38;;;1.60;;
11711;SDS011;5912;51.034;6.984;2022-08-03T08:05:17;1.80;;;1.40;;
11711;SDS011;5912;51.034;6.984;2022-08-03T08:07:42;2.55;;;1.58;;
11711;SDS011;5912;51.034;6.984;2022-08-03T08:10:08;1.75;;;1.60;;
11711;SDS011;5912;51.034;6.984;2022-08-03T08:12:34;3.25;;;1.60;;
11711;SDS011;5912;51.034;6.984;2022-08-03T08:15:00;2.30;;;1.40;;
11711;SDS011;5912;51.034;6.984;2022-08-03T08:17:26;6.07;;;2.00;;
11711;SDS011;5912;51.034;6.984;2022-08-03T08:19:51;1.58;;;1.35;;
11711;SDS011;5912;51.034;6.984;2022-08-03T08:22:16;3.17;;;1.42;;
11711;SDS011;5912;51.034;6.984;2022-08-03T08:24:42;1.42;;;1.17;;
11711;SDS011;5912;51.034;6.984;2022-08-03T08:27:08;1.92;;;1.30;;
11711;SDS011;5912;51.034;6.984;2022-08-03T08:29:35;1.88;;;1.30;;
11711;SDS011;5912;51.034;6.984;2022-08-03T08:32:01;1.23;;;1.08;;
11711;SDS011;5912;51.034;6.984;2022-08-03T08:34:27;3.78;;;2.08;;
11711;SDS011;5912;51.034;6.984;2022-08-03T08:36:52;2.45;;;1.40;;
11711;SDS011;5912;51.034;6.984;2022-08-03T08:39:17;3.97;;;1.67;;
11711;SDS011;5912;51.034;6.984;2022-08-03T08:41:42;1.60;;;1.20;;
11711;SDS011;5912;51.034;6.984;2022-08-03T08:44:08;1.60;;;1.17;;
11711;SDS011;5912;51.034;6.984;2022-08-03T08:46:34;2.30;;;1.13;;
11711;SDS011;5912;51.034;6.984;2022-08-03T08:49:02;1.15;;;0.88;;
11711;SDS011;5912;51.034;6.984;2022-08-03T08:51:30;1.58;;;1.05;;
11711;SDS011;5912;51.034;6.984;2022-08-03T08:54:01;2.80;;;1.10;;
11711;SDS011;5912;51.034;6.984;2022-08-03T08:56:28;2.33;;;1.20;;
11711;SDS011;5912;51.034;6.984;2022-08-03T08:58:59;2.83;;;1.10;;
11711;SDS011;5912;51.034;6.984;2022-08-03T09:01:25;1.17;;;1.02;;
11711;SDS011;5912;51.034;6.984;2022-08-03T09:03:51;2.30;;;1.23;;
11711;SDS011;5912;51.034;6.984;2022-08-03T09:06:18;1.60;;;0.77;;
11711;SDS011;5912;51.034;6.984;2022-08-03T09:08:44;1.25;;;1.10;;
11711;SDS011;5912;51.034;6.984;2022-08-03T09:11:09;1.13;;;0.95;;
11711;SDS011;5912;51.034;6.984;2022-08-03T09:13:34;1.58;;;0.93;;
11711;SDS011;5912;51.034;6.984;2022-08-03T09:18:36;1.70;;;1.10;;
11711;SDS011;5912;51.034;6.984;2022-08-03T09:21:21;2.00;;;1.23;;
11711;SDS011;5912;51.034;6.984;2022-08-03T09:23:53;1.80;;;1.15;;
11711;SDS011;5912;51.034;6.984;2022-08-03T09:26:24;1.67;;;1.10;;
11711;SDS011;5912;51.034;6.984;2022-08-03T09:28:58;1.55;;;1.17;;
11711;SDS011;5912;51.034;6.984;2022-08-03T09:34:06;2.30;;;1.40;;
11711;SDS011;5912;51.034;6.984;2022-08-03T09:36:34;1.25;;;1.00;;
11711;SDS011;5912;51.034;6.984;2022-08-03T09:39:02;1.75;;;1.20;;
11711;SDS011;5912;51.034;6.984;2022-08-03T09:41:30;1.27;;;1.17;;
11711;SDS011;5912;51.034;6.984;2022-08-03T09:43:55;3.75;;;1.67;;
11711;SDS011;5912;51.034;6.984;2022-08-03T09:46:21;5.03;;;1.48;;
11711;SDS011;5912;51.034;6.984;2022-08-03T09:48:46;1.85;;;1.30;;
11711;SDS011;5912;51.034;6.984;2022-08-03T09:51:11;1.70;;;1.15;;
11711;SDS011;5912;51.034;6.984;2022-08-03T09:53:42;2.53;;;1.40;;
11711;SDS011;5912;51.034;6.984;2022-08-03T09:56:11;3.00;;;0.90;;
11711;SDS011;5912;51.034;6.984;2022-08-03T09:58:44;1.70;;;0.80;;
11711;SDS011;5912;51.034;6.984;2022-08-03T10:01:15;1.65;;;1.00;;
11711;SDS011;5912;51.034;6.984;2022-08-03T10:03:40;2.40;;;1.38;;
11711;SDS011;5912;51.034;6.984;2022-08-03T10:06:15;1.92;;;1.20;;
11711;SDS011;5912;51.034;6.984;2022-08-03T10:08:44;4.45;;;1.10;;
11711;SDS011;5912;51.034;6.984;2022-08-03T10:11:10;2.90;;;1.02;;
11711;SDS011;5912;51.034;6.984;2022-08-03T10:13:36;1.52;;;1.02;;
11711;SDS011;5912;51.034;6.984;2022-08-03T10:16:02;1.60;;;0.90;;
11711;SDS011;5912;51.034;6.984;2022-08-03T10:18:28;2.97;;;0.93;;
11711;SDS011;5912;51.034;6.984;2022-08-03T10:21:03;2.38;;;1.05;;
11711;SDS011;5912;51.034;6.984;2022-08-03T10:23:34;3.92;;;1.05;;
11711;SDS011;5912;51.034;6.984;2022-08-03T10:26:03;1.55;;;1.00;;
11711;SDS011;5912;51.034;6.984;2022-08-03T10:28:34;1.10;;;0.80;;
11711;SDS011;5912;51.034;6.984;2022-08-03T10:31:04;2.55;;;0.80;;
11711;SDS011;5912;51.034;6.984;2022-08-03T10:33:32;2.60;;;0.98;;
11711;SDS011;5912;51.034;6.984;2022-08-03T10:36:01;0.93;;;0.65;;
11711;SDS011;5912;51.034;6.984;2022-08-03T10:38:42;1.92;;;0.70;;
11711;SDS011;5912;51.034;6.984;2022-08-03T10:41:14;4.38;;;0.70;;
11711;SDS011;5912;51.034;6.984;2022-08-03T10:43:44;2.42;;;0.40;;
11711;SDS011;5912;51.034;6.984;2022-08-03T10:46:22;0.60;;;0.52;;
11711;SDS011;5912;51.034;6.984;2022-08-03T10:48:48;2.70;;;0.55;;
11711;SDS011;5912;51.034;6.984;2022-08-03T10:51:16;0.70;;;0.60;;
11711;SDS011;5912;51.034;6.984;2022-08-03T10:53:42;0.77;;;0.50;;
11711;SDS011;5912;51.034;6.984;2022-08-03T10:59:17;1.10;;;0.63;;
11711;SDS011;5912;51.034;6.984;2022-08-03T11:01:48;1.63;;;0.50;;
11711;SDS011;5912;51.034;6.984;2022-08-03T11:04:16;1.30;;;0.50;;
11711;SDS011;5912;51.034;6.984;2022-08-03T11:06:43;1.42;;;0.60;;
11711;SDS011;5912;51.034;6.984;2022-08-03T11:09:14;1.77;;;0.65;;
11711;SDS011;5912;51.034;6.984;2022-08-03T11:11:42;1.33;;;0.70;;
11711;SDS011;5912;51.034;6.984;2022-08-03T11:14:12;1.38;;;0.70;;
11711;SDS011;5912;51.034;6.984;2022-08-03T11:19:49;1.65;;;0.60;;
11711;SDS011;5912;51.034;6.984;2022-08-03T11:22:17;0.80;;;0.63;;
11711;SDS011;5912;51.034;6.984;2022-08-03T11:35:16;3.28;;;0.93;;
11711;SDS011;5912;51.034;6.984;2022-08-03T11:46:00;2.45;;;0.80;;
11711;SDS011;5912;51.034;6.984;2022-08-03T11:51:04;2.38;;;1.20;;
11711;SDS011;5912;51.034;6.984;2022-08-03T11:53:31;1.83;;;0.80;;
11711;SDS011;5912;51.034;6.984;2022-08-03T11:55:58;1.10;;;0.65;;
11711;SDS011;5912;51.034;6.984;2022-08-03T11:58:25;0.80;;;0.70;;
11711;SDS011;5912;51.034;6.984;2022-08-03T12:00:51;1.75;;;0.65;;
11711;SDS011;5912;51.034;6.984;2022-08-03T12:03:18;2.72;;;0.70;;
11711;SDS011;5912;51.034;6.984;2022-08-03T12:05:48;1.00;;;0.55;;
11711;SDS011;5912;51.034;6.984;2022-08-03T12:08:17;1.27;;;0.60;;
11711;SDS011;5912;51.034;6.984;2022-08-03T12:10:49;1.73;;;0.60;;
11711;SDS011;5912;51.034;6.984;2022-08-03T12:13:15;1.10;;;0.70;;
11711;SDS011;5912;51.034;6.984;2022-08-03T12:15:42;2.15;;;0.75;;
11711;SDS011;5912;51.034;6.984;2022-08-03T12:18:14;1.23;;;0.75;;
11711;SDS011;5912;51.034;6.984;2022-08-03T12:20:41;0.93;;;0.55;;
11711;SDS011;5912;51.034;6.984;2022-08-03T12:23:07;2.30;;;0.50;;
11711;SDS011;5912;51.034;6.984;2022-08-03T12:25:34;2.33;;;0.80;;
11711;SDS011;5912;51.034;6.984;2022-08-03T12:28:10;1.88;;;0.70;;
11711;SDS011;5912;51.034;6.984;2022-08-03T12:30:41;1.10;;;0.63;;
11711;SDS011;5912;51.034;6.984;2022-08-03T12:33:21;1.10;;;0.70;;
11711;SDS011;5912;51.034;6.984;2022-08-03T12:35:49;1.00;;;0.68;;
11711;SDS011;5912;51.034;6.984;2022-08-03T12:38:28;1.75;;;0.80;;
11711;SDS011;5912;51.034;6.984;2022-08-03T12:40:54;2.92;;;0.70;;
11711;SDS011;5912;51.034;6.984;2022-08-03T12:43:28;0.85;;;0.50;;
11711;SDS011;5912;51.034;6.984;2022-08-03T12:46:15;1.38;;;0.70;;
11711;SDS011;5912;51.034;6.984;2022-08-03T12:51:25;0.77;;;0.55;;
11711;SDS011;5912;51.034;6.984;2022-08-03T12:53:54;1.52;;;0.98;;
11711;SDS011;5912;51.034;6.984;2022-08-03T12:56:22;1.35;;;0.60;;
11711;SDS011;5912;51.034;6.984;2022-08-03T12:58:48;0.90;;;0.65;;
11711;SDS011;5912;51.034;6.984;2022-08-03T13:01:17;0.52;;;0.50;;
11711;SDS011;5912;51.034;6.984;2022-08-03T13:03:44;3.13;;;0.80;;
11711;SDS011;5912;51.034;6.984;2022-08-03T13:06:15;0.98;;;0.95;;
11711;SDS011;5912;51.034;6.984;2022-08-03T13:08:44;0.80;;;0.57;;
11711;SDS011;5912;51.034;6.984;2022-08-03T13:11:22;1.13;;;0.70;;
11711;SDS011;5912;51.034;6.984;2022-08-03T13:13:52;3.53;;;0.80;;
11711;SDS011;5912;51.034;6.984;2022-08-03T13:16:18;1.25;;;0.70;;
11711;SDS011;5912;51.034;6.984;2022-08-03T13:18:47;1.73;;;0.70;;
11711;SDS011;5912;51.034;6.984;2022-08-03T13:21:14;1.10;;;0.57;;
11711;SDS011;5912;51.034;6.984;2022-08-03T13:23:40;1.58;;;0.80;;
11711;SDS011;5912;51.034;6.984;2022-08-03T13:26:06;1.48;;;0.50;;
11711;SDS011;5912;51.034;6.984;2022-08-03T13:28:32;0.68;;;0.50;;
11711;SDS011;5912;51.034;6.984;2022-08-03T13:30:57;1.58;;;0.88;;
11711;SDS011;5912;51.034;6.984;2022-08-03T13:33:23;1.65;;;0.77;;
11711;SDS011;5912;51.034;6.984;2022-08-03T13:35:48;0.98;;;0.60;;
11711;SDS011;5912;51.034;6.984;2022-08-03T13:38:13;1.05;;;0.70;;
11711;SDS011;5912;51.034;6.984;2022-08-03T13:40:38;1.97;;;0.67;;
11711;SDS011;5912;51.034;6.984;2022-08-03T13:43:04;1.87;;;0.50;;
11711;SDS011;5912;51.034;6.984;2022-08-03T13:45:29;2.90;;;0.63;;
11711;SDS011;5912;51.034;6.984;2022-08-03T13:47:54;2.83;;;0.55;;
11711;SDS011;5912;51.034;6.984;2022-08-03T13:50:21;1.27;;;0.60;;
11711;SDS011;5912;51.034;6.984;2022-08-03T13:52:46;0.97;;;0.60;;
11711;SDS011;5912;51.034;6.984;2022-08-03T13:55:11;2.42;;;0.70;;
11711;SDS011;5912;51.034;6.984;2022-08-03T13:57:37;4.93;;;0.82;;
11711;SDS011;5912;51.034;6.984;2022-08-03T14:00:03;0.87;;;0.60;;
11711;SDS011;5912;51.034;6.984;2022-08-03T14:02:30;0.98;;;0.73;;
11711;SDS011;5912;51.034;6.984;2022-08-03T14:04:55;2.25;;;1.60;;
11711;SDS011;5912;51.034;6.984;2022-08-03T14:07:21;3.28;;;1.25;;
11711;SDS011;5912;51.034;6.984;2022-08-03T14:09:46;1.83;;;1.00;;
11711;SDS011;5912;51.034;6.984;2022-08-03T14:12:12;1.25;;;0.70;;
11711;SDS011;5912;51.034;6.984;2022-08-03T14:14:37;2.17;;;0.88;;
11711;SDS011;5912;51.034;6.984;2022-08-03T14:17:02;1.00;;;0.75;;
11711;SDS011;5912;51.034;6.984;2022-08-03T14:19:28;0.70;;;0.60;;
11711;SDS011;5912;51.034;6.984;2022-08-03T14:21:53;2.75;;;0.82;;
11711;SDS011;5912;51.034;6.984;2022-08-03T14:24:19;1.15;;;0.50;;
11711;SDS011;5912;51.034;6.984;2022-08-03T14:26:44;1.85;;;0.63;;
11711;SDS011;5912;51.034;6.984;2022-08-03T14:29:09;1.23;;;0.70;;
11711;SDS011;5912;51.034;6.984;2022-08-03T14:31:35;0.80;;;0.60;;
11711;SDS011;5912;51.034;6.984;2022-08-03T14:34:01;1.13;;;0.43;;
11711;SDS011;5912;51.034;6.984;2022-08-03T14:36:27;1.35;;;0.80;;
11711;SDS011;5912;51.034;6.984;2022-08-03T14:38:52;0.90;;;0.52;;
11711;SDS011;5912;51.034;6.984;2022-08-03T14:41:17;1.08;;;0.50;;
11711;SDS011;5912;51.034;6.984;2022-08-03T14:43:43;2.10;;;1.70;;
11711;SDS011;5912;51.034;6.984;2022-08-03T14:46:08;5.45;;;3.78;;
11711;SDS011;5912;51.034;6.984;2022-08-03T14:48:33;1.00;;;0.90;;
11711;SDS011;5912;51.034;6.984;2022-08-03T14:50:58;1.90;;;0.63;;
11711;SDS011;5912;51.034;6.984;2022-08-03T14:53:24;1.80;;;0.70;;
11711;SDS011;5912;51.034;6.984;2022-08-03T14:55:50;1.33;;;0.60;;
11711;SDS011;5912;51.034;6.984;2022-08-03T14:58:20;1.20;;;0.80;;
11711;SDS011;5912;51.034;6.984;2022-08-03T15:00:47;2.10;;;0.70;;
11711;SDS011;5912;51.034;6.984;2022-08-03T15:03:13;0.82;;;0.60;;
11711;SDS011;5912;51.034;6.984;2022-08-03T15:05:38;0.88;;;0.50;;
11711;SDS011;5912;51.034;6.984;2022-08-03T15:08:04;2.75;;;1.23;;
11711;SDS011;5912;51.034;6.984;2022-08-03T15:10:29;5.88;;;4.35;;
11711;SDS011;5912;51.034;6.984;2022-08-03T15:12:55;2.88;;;1.35;;
11711;SDS011;5912;51.034;6.984;2022-08-03T15:15:20;2.58;;;0.80;;
11711;SDS011;5912;51.034;6.984;2022-08-03T15:17:45;1.88;;;0.90;;
11711;SDS011;5912;51.034;6.984;2022-08-03T15:20:11;2.88;;;1.30;;
11711;SDS011;5912;51.034;6.984;2022-08-03T15:22:39;1.92;;;1.20;;
11711;SDS011;5912;51.034;6.984;2022-08-03T15:25:05;2.50;;;0.90;;
11711;SDS011;5912;51.034;6.984;2022-08-03T15:27:31;4.18;;;1.20;;
11711;SDS011;5912;51.034;6.984;2022-08-03T15:29:57;2.03;;;0.90;;
11711;SDS011;5912;51.034;6.984;2022-08-03T15:32:23;1.97;;;0.77;;
11711;SDS011;5912;51.034;6.984;2022-08-03T15:34:48;0.68;;;0.60;;
11711;SDS011;5912;51.034;6.984;2022-08-03T15:37:15;0.80;;;0.60;;
11711;SDS011;5912;51.034;6.984;2022-08-03T15:39:40;0.65;;;0.50;;
11711;SDS011;5912;51.034;6.984;2022-08-03T15:42:05;1.20;;;0.70;;
11711;SDS011;5912;51.034;6.984;2022-08-03T15:44:31;0.88;;;0.60;;
11711;SDS011;5912;51.034;6.984;2022-08-03T15:46:56;1.42;;;0.80;;
11711;SDS011;5912;51.034;6.984;2022-08-03T15:49:21;1.95;;;0.75;;
11711;SDS011;5912;51.034;6.984;2022-08-03T15:51:47;1.30;;;0.95;;
11711;SDS011;5912;51.034;6.984;2022-08-03T15:54:12;2.60;;;0.82;;